createdAt,value
2022-08-03T00:01:38.209Z,64.91
2022-08-03T00:04:09.284Z,65.19
2022-08-03T00:06:37.431Z,64.89
2022-08-03T00:09:06.400Z,65.08
2022-08-03T00:11:34.807Z,65.13
2022-08-03T00:14:02.616Z,65.29
2022-08-03T00:16:30.123Z,64.75
2022-08-03T00:18:57.544Z,65.02
2022-08-03T00:21:25.096Z,64.93
2022-08-03T00:23:53.016Z,65.22
2022-08-03T00:26:22.046Z,65.68
2022-08-03T00:28:50.470Z,65.48
2022-08-03T00:31:30.950Z,65.28
2022-08-03T00:34:06.178Z,65.42
2022-08-03T00:36:34.317Z,65.26
2022-08-03T00:39:01.619Z,65.90
2022-08-03T00:41:29.060Z,65.38
2022-08-03T00:43:56.381Z,65.61
2022-08-03T00:46:23.820Z,65.65
2022-08-03T00:48:51.995Z,65.41
2022-08-03T00:51:20.877Z,65.22
2022-08-03T00:53:48.421Z,65.48
2022-08-03T00:56:17.810Z,65.74
2022-08-03T00:58:47.509Z,65.68
2022-08-03T01:01:15.933Z,66.11
2022-08-03T01:03:45.252Z,66.02
2022-08-03T01:16:20.671Z,66.68
2022-08-03T01:19:17.024Z,66.06
2022-08-03T01:21:59.094Z,66.22
2022-08-03T01:25:16.355Z,66.27
2022-08-03T01:28:40.002Z,66.45
2022-08-03T01:31:16.542Z,66.03
2022-08-03T01:33:50.267Z,66.30
2022-08-03T01:36:23.301Z,66.51
2022-08-03T01:38:56.670Z,66.58
2022-08-03T01:41:33.874Z,66.53
2022-08-03T01:44:29.379Z,66.52
2022-08-03T01:47:01.656Z,66.74
2022-08-03T01:49:34.198Z,66.94
2022-08-03T01:52:05.458Z,66.95
2022-08-03T01:54:42.611Z,66.80
2022-08-03T01:57:11.375Z,66.87
2022-08-03T01:59:40.569Z,67.00
2022-08-03T02:02:28.717Z,67.05
2022-08-03T02:04:59.465Z,67.02
2022-08-03T02:07:29.805Z,67.09
2022-08-03T02:09:59.140Z,67.42
2022-08-03T02:12:30.177Z,67.16
2022-08-03T02:14:59.931Z,67.27
2022-08-03T02:17:39.088Z,67.12
2022-08-03T02:20:12.395Z,66.90
2022-08-03T02:22:44.737Z,67.25
2022-08-03T02:25:14.674Z,66.27
2022-08-03T02:27:53.326Z,66.16
2022-08-03T02:30:22.329Z,66.27
2022-08-03T02:32:55.834Z,66.07
2022-08-03T02:35:27.456Z,66.43
2022-08-03T02:38:01.562Z,66.55
2022-08-03T02:40:31.184Z,67.04
2022-08-03T02:43:07.746Z,66.55
2022-08-03T02:45:45.504Z,66.60
2022-08-03T02:48:25.100Z,66.93
2022-08-03T02:50:55.394Z,67.15
2022-08-03T02:53:24.634Z,67.10
2022-08-03T02:55:54.146Z,67.43
2022-08-03T02:58:23.542Z,67.22
2022-08-03T03:00:52.210Z,67.02
2022-08-03T03:03:21.620Z,67.06
2022-08-03T03:05:55.165Z,67.18
2022-08-03T03:08:28.661Z,67.49
2022-08-03T03:11:01.401Z,67.55
2022-08-03T03:13:33.122Z,67.36
2022-08-03T03:16:04.920Z,67.31
2022-08-03T03:18:34.625Z,67.47
2022-08-03T03:21:04.482Z,67.38
2022-08-03T03:23:36.219Z,67.34
2022-08-03T03:26:04.139Z,67.28
2022-08-03T03:28:33.195Z,67.55
2022-08-03T03:31:02.102Z,67.50
2022-08-03T03:33:29.459Z,67.47
2022-08-03T03:35:58.564Z,67.46
2022-08-03T03:38:26.200Z,67.41
2022-08-03T03:40:54.191Z,66.96
2022-08-03T03:43:24.016Z,67.29
2022-08-03T03:45:53.147Z,67.19
2022-08-03T03:48:21.210Z,67.13
2022-08-03T03:50:50.656Z,67.41
2022-08-03T03:53:18.054Z,67.52
2022-08-03T03:55:57.847Z,68.03
2022-08-03T03:58:31.935Z,67.68
2022-08-03T04:00:59.726Z,67.90
2022-08-03T04:03:27.290Z,67.92
2022-08-03T04:06:13.368Z,68.28
2022-08-03T04:08:59.958Z,68.38
2022-08-03T04:11:35.070Z,68.72
2022-08-03T04:14:26.892Z,68.58
2022-08-03T04:16:59.839Z,68.49
2022-08-03T04:19:45.511Z,68.57
2022-08-03T04:22:21.645Z,68.79
2022-08-03T04:25:01.784Z,68.53
2022-08-03T04:27:36.837Z,68.96
2022-08-03T04:30:06.733Z,69.23
2022-08-03T04:32:36.432Z,69.82
2022-08-03T04:35:06.728Z,70.10
2022-08-03T04:37:44.251Z,69.98
2022-08-03T04:40:16.469Z,69.61
2022-08-03T04:42:50.294Z,70.08
2022-08-03T04:45:20.063Z,70.30
2022-08-03T04:47:48.093Z,69.92
2022-08-03T04:50:21.221Z,70.25
2022-08-03T04:52:49.700Z,70.46
2022-08-03T04:55:34.632Z,70.42
2022-08-03T04:58:04.112Z,70.50
2022-08-03T05:00:32.362Z,70.52
2022-08-03T05:02:59.667Z,70.49
2022-08-03T05:05:48.871Z,70.57
2022-08-03T05:08:14.450Z,70.98
2022-08-03T05:10:41.746Z,71.10
2022-08-03T05:13:12.993Z,70.89
2022-08-03T05:15:42.962Z,70.79
2022-08-03T05:18:14.137Z,70.42
2022-08-03T05:20:42.095Z,69.60
2022-08-03T05:23:09.368Z,68.83
2022-08-03T05:25:36.667Z,68.73
2022-08-03T05:28:04.480Z,67.79
2022-08-03T05:30:34.334Z,67.35
2022-08-03T05:33:03.800Z,67.13
2022-08-03T05:35:57.474Z,66.39
2022-08-03T05:38:24.024Z,66.80
2022-08-03T05:41:22.905Z,66.87
2022-08-03T05:43:48.056Z,65.13
2022-08-03T05:46:15.955Z,65.49
2022-08-03T05:48:43.835Z,65.45
2022-08-03T05:51:12.126Z,64.30
2022-08-03T05:53:41.448Z,64.49
2022-08-03T05:56:14.611Z,64.55
2022-08-03T05:58:52.769Z,65.15
2022-08-03T06:01:23.680Z,64.15
2022-08-03T06:03:52.279Z,64.13
2022-08-03T06:06:20.061Z,63.44
2022-08-03T06:08:48.973Z,64.00
2022-08-03T06:11:16.699Z,63.47
2022-08-03T06:13:44.894Z,64.22
2022-08-03T06:16:12.356Z,62.93
2022-08-03T06:18:40.584Z,63.25
2022-08-03T06:21:14.677Z,63.25
2022-08-03T06:23:54.397Z,62.47
2022-08-03T06:26:27.853Z,62.02
2022-08-03T06:28:55.956Z,62.82
2022-08-03T06:31:32.393Z,61.87
2022-08-03T06:34:32.100Z,62.52
2022-08-03T06:36:52.886Z,62.18
2022-08-03T06:39:23.557Z,61.28
2022-08-03T06:41:51.783Z,62.14
2022-08-03T06:44:19.057Z,61.49
2022-08-03T06:46:47.836Z,60.34
2022-08-03T06:49:15.176Z,61.61
2022-08-03T06:52:03.081Z,61.68
2022-08-03T06:54:32.928Z,60.82
2022-08-03T06:57:00.964Z,59.34
2022-08-03T07:00:09.498Z,60.53
2022-08-03T07:02:19.023Z,58.38
2022-08-03T07:04:48.543Z,60.09
2022-08-03T07:07:15.994Z,58.89
2022-08-03T07:09:43.289Z,59.57
2022-08-03T07:12:27.041Z,57.54
2022-08-03T07:14:59.763Z,57.80
2022-08-03T07:17:29.778Z,55.81
2022-08-03T07:19:57.806Z,53.63
2022-08-03T07:22:25.500Z,54.09
2022-08-03T07:24:52.909Z,54.73
2022-08-03T07:27:20.323Z,54.63
2022-08-03T07:29:47.560Z,55.12
2022-08-03T07:32:15.189Z,54.38
2022-08-03T07:34:42.636Z,51.90
2022-08-03T07:37:09.983Z,49.31
2022-08-03T07:39:37.231Z,47.73
2022-08-03T07:42:05.630Z,49.56
2022-08-03T07:44:32.983Z,48.76
2022-08-03T07:47:03.219Z,50.17
2022-08-03T07:49:30.998Z,49.26
2022-08-03T07:52:17.541Z,49.70
2022-08-03T07:54:45.200Z,47.68
2022-08-03T07:57:12.945Z,50.43
2022-08-03T07:59:56.431Z,50.33
2022-08-03T08:02:24.866Z,48.87
2022-08-03T08:04:52.370Z,50.06
2022-08-03T08:07:20.714Z,49.59
2022-08-03T08:09:48.088Z,49.91
2022-08-03T08:12:16.092Z,50.16
2022-08-03T08:14:46.784Z,52.39
2022-08-03T08:17:14.595Z,51.90
2022-08-03T08:19:47.525Z,48.98
2022-08-03T08:22:26.522Z,50.31
2022-08-03T08:27:27.323Z,49.50
2022-08-03T08:29:58.845Z,47.73
2022-08-03T08:32:29.931Z,48.62
2022-08-03T08:34:57.916Z,48.29
2022-08-03T08:37:25.258Z,49.37
2022-08-03T08:39:52.541Z,49.70
2022-08-03T08:42:19.853Z,48.36
2022-08-03T08:44:47.160Z,46.93
2022-08-03T08:47:15.949Z,46.78
2022-08-03T08:49:53.577Z,44.88
2022-08-03T08:52:32.222Z,44.57
2022-08-03T08:55:04.142Z,46.36
2022-08-03T08:57:43.162Z,45.25
2022-08-03T09:00:15.504Z,42.81
2022-08-03T09:02:44.842Z,43.30
2022-08-03T09:05:17.944Z,42.43
2022-08-03T09:07:47.864Z,41.34
2022-08-03T09:10:19.949Z,42.09
2022-08-03T09:12:52.314Z,40.97
2022-08-03T09:15:23.461Z,41.51
2022-08-03T09:17:54.075Z,41.58
2022-08-03T09:20:24.137Z,41.30
2022-08-03T09:23:44.987Z,40.00
2022-08-03T09:26:01.801Z,40.66
2022-08-03T09:29:00.844Z,41.42
2022-08-03T09:31:44.209Z,38.64
2022-08-03T09:34:15.178Z,42.22
2022-08-03T09:36:48.405Z,40.67
2022-08-03T09:39:40.796Z,42.14
2022-08-03T09:42:23.547Z,39.74
2022-08-03T09:44:52.842Z,40.59
2022-08-03T09:47:36.802Z,38.56
2022-08-03T09:50:13.034Z,39.80
2022-08-03T09:52:49.609Z,39.42
2022-08-03T09:56:33.494Z,39.57
2022-08-03T09:58:14.400Z,41.38
2022-08-03T10:01:24.008Z,38.83
2022-08-03T10:04:03.182Z,38.64
2022-08-03T10:06:32.117Z,39.44
2022-08-03T10:09:17.886Z,40.08
2022-08-03T10:11:47.069Z,39.05
2022-08-03T10:14:19.370Z,38.22
2022-08-03T10:16:48.574Z,39.36
2022-08-03T10:19:16.630Z,39.18
2022-08-03T10:21:54.313Z,39.30
2022-08-03T10:24:27.534Z,39.50
2022-08-03T10:27:08.108Z,38.78
2022-08-03T10:29:42.585Z,39.59
2022-08-03T10:32:28.757Z,38.92
2022-08-03T10:35:20.044Z,39.25
2022-08-03T10:38:18.717Z,39.68
2022-08-03T10:40:49.597Z,39.44
2022-08-03T10:43:34.726Z,38.53
2022-08-03T10:46:07.581Z,40.09
2022-08-03T10:48:36.938Z,38.97
2022-08-03T10:51:04.986Z,41.26
2022-08-03T10:53:54.481Z,39.02
2022-08-03T10:56:53.483Z,39.85
2022-08-03T10:59:46.749Z,39.23
2022-08-03T11:02:15.630Z,40.49
2022-08-03T11:04:44.869Z,38.75
2022-08-03T11:07:18.432Z,39.50
2022-08-03T11:09:49.203Z,40.47
2022-08-03T11:12:30.661Z,41.49
2022-08-03T11:15:04.422Z,40.13
2022-08-03T11:17:46.162Z,39.68
2022-08-03T11:21:00.457Z,38.91
2022-08-03T11:24:05.307Z,40.92
2022-08-03T11:26:35.074Z,39.22
2022-08-03T11:29:30.710Z,38.15
2022-08-03T11:31:58.549Z,40.36
2022-08-03T11:34:26.469Z,39.71
2022-08-03T11:37:30.151Z,38.44
2022-08-03T11:40:02.588Z,39.66
2022-08-03T11:42:36.649Z,38.19
2022-08-03T11:45:09.018Z,38.51
2022-08-03T11:47:50.581Z,40.05
2022-08-03T11:50:20.059Z,39.05
2022-08-03T11:52:48.460Z,39.79
2022-08-03T11:55:20.472Z,39.15
2022-08-03T11:59:00.851Z,38.26
2022-08-03T12:01:08.316Z,39.04
2022-08-03T12:03:36.425Z,37.64
2022-08-03T12:06:04.800Z,38.32
2022-08-03T12:08:34.190Z,38.76
2022-08-03T12:11:05.877Z,39.01
2022-08-03T12:13:56.816Z,38.99
2022-08-03T12:16:28.910Z,39.94
2022-08-03T12:19:06.953Z,39.75
2022-08-03T12:21:34.380Z,39.70
2022-08-03T12:24:05.034Z,38.50
2022-08-03T12:26:57.231Z,39.16
2022-08-03T12:29:27.487Z,39.96
2022-08-03T12:31:56.137Z,39.43
2022-08-03T12:34:23.760Z,39.59
2022-08-03T12:36:56.224Z,38.71
2022-08-03T12:39:27.586Z,39.37
2022-08-03T12:41:57.083Z,36.74
2022-08-03T12:44:33.898Z,37.80
2022-08-03T12:47:06.833Z,38.07
2022-08-03T12:49:52.258Z,36.71
2022-08-03T12:52:22.279Z,37.83
2022-08-03T12:55:00.876Z,36.79
2022-08-03T12:57:48.772Z,37.02
2022-08-03T13:00:29.121Z,36.95
2022-08-03T13:05:55.670Z,36.55
2022-08-03T13:08:25.717Z,37.10
2022-08-03T13:10:53.354Z,37.73
2022-08-03T13:13:39.788Z,37.24
2022-08-03T13:16:07.032Z,37.92
2022-08-03T13:18:34.292Z,37.51
2022-08-03T13:21:02.314Z,38.08
2022-08-03T13:23:36.091Z,37.25
2022-08-03T13:26:03.333Z,38.22
2022-08-03T13:28:30.704Z,38.44
2022-08-03T13:30:57.966Z,38.10
2022-08-03T13:33:26.688Z,38.29
2022-08-03T13:35:53.963Z,38.78
2022-08-03T13:38:21.633Z,37.16
2022-08-03T13:40:54.575Z,37.85
2022-08-03T13:43:23.371Z,37.68
2022-08-03T13:45:54.822Z,37.53
2022-08-03T13:48:36.965Z,38.95
2022-08-03T13:51:11.695Z,38.01
2022-08-03T13:53:52.338Z,37.98
2022-08-03T13:56:19.664Z,36.74
2022-08-03T13:58:53.335Z,37.14
2022-08-03T14:01:53.649Z,36.14
2022-08-03T14:04:21.627Z,36.75
2022-08-03T14:06:49.820Z,36.03
2022-08-03T14:09:17.770Z,36.09
2022-08-03T14:12:07.078Z,36.06
2022-08-03T14:14:33.297Z,36.44
2022-08-03T14:17:00.591Z,37.29
2022-08-03T14:19:27.893Z,36.46
2022-08-03T14:22:06.007Z,36.14
2022-08-03T14:24:33.661Z,33.69
2022-08-03T14:27:08.641Z,36.04
2022-08-03T14:29:36.465Z,35.35
2022-08-03T14:32:11.448Z,35.48
2022-08-03T14:34:40.960Z,35.91
2022-08-03T14:37:08.753Z,35.01
2022-08-03T14:42:23.926Z,34.80
2022-08-03T14:44:51.202Z,34.13
2022-08-03T14:47:18.598Z,35.79
2022-08-03T14:50:38.545Z,35.36
2022-08-03T14:52:33.832Z,35.36
2022-08-03T14:55:01.849Z,34.46
2022-08-03T14:57:37.221Z,34.88
2022-08-03T15:00:05.757Z,33.04
2022-08-03T15:02:33.271Z,33.99
2022-08-03T15:05:00.787Z,33.45
2022-08-03T15:07:28.092Z,34.71
2022-08-03T15:09:55.576Z,33.66
2022-08-03T15:12:23.303Z,33.32
2022-08-03T15:14:50.615Z,34.51
2022-08-03T15:17:19.288Z,34.38
2022-08-03T15:20:00.217Z,34.66
2022-08-03T15:22:34.712Z,33.41
2022-08-03T15:26:01.721Z,32.55
2022-08-03T15:28:03.071Z,31.85
2022-08-03T15:30:35.995Z,32.21
2022-08-03T15:33:04.234Z,31.32
2022-08-03T15:35:31.637Z,31.72
2022-08-03T15:37:58.890Z,31.43
2022-08-03T15:40:26.447Z,31.82
2022-08-03T15:42:53.745Z,30.61
2022-08-03T15:45:21.039Z,30.85
2022-08-03T15:47:51.319Z,30.57
2022-08-03T15:50:18.648Z,29.80
2022-08-03T15:52:46.060Z,29.63
2022-08-03T15:55:15.703Z,28.21
2022-08-03T15:59:03.154Z,29.66
2022-08-03T16:00:33.642Z,28.58
2022-08-03T16:03:01.722Z,29.35
2022-08-03T16:05:29.450Z,29.16
2022-08-03T16:08:02.568Z,28.73
2022-08-03T16:10:31.748Z,29.26
2022-08-03T16:13:00.333Z,29.52
2022-08-03T16:15:29.133Z,29.68
2022-08-03T16:17:56.750Z,29.39
2022-08-03T16:20:31.418Z,29.64
2022-08-03T16:23:05.517Z,29.74
2022-08-03T16:25:40.737Z,30.47
2022-08-03T16:28:13.770Z,30.16
2022-08-03T16:30:43.405Z,30.66
2022-08-03T16:33:17.172Z,30.87
2022-08-03T16:35:46.761Z,30.67
2022-08-03T16:38:18.783Z,29.63
2022-08-03T16:40:51.634Z,29.67
2022-08-03T16:43:22.690Z,29.93
2022-08-03T16:45:50.570Z,30.71
2022-08-03T16:48:19.217Z,30.43
2022-08-03T16:50:47.074Z,31.78
2022-08-03T16:53:16.842Z,31.34
2022-08-03T16:55:53.600Z,30.30
2022-08-03T16:58:41.161Z,30.50
2022-08-03T17:01:22.350Z,30.47
2022-08-03T17:04:04.762Z,31.29
2022-08-03T17:06:38.367Z,31.49
2022-08-03T17:09:17.994Z,31.52
2022-08-03T17:11:49.229Z,32.23
2022-08-03T17:14:22.927Z,32.05
2022-08-03T17:17:03.841Z,32.49
2022-08-03T17:19:32.810Z,32.68
2022-08-03T17:22:15.893Z,32.87
2022-08-03T17:24:54.616Z,32.90
2022-08-03T17:28:51.519Z,33.13
2022-08-03T17:30:18.868Z,32.84
2022-08-03T17:32:57.220Z,33.61
2022-08-03T17:35:38.619Z,35.34
2022-08-03T17:38:11.848Z,36.76
2022-08-03T17:40:43.049Z,37.42
2022-08-03T17:44:13.083Z,37.77
2022-08-03T17:48:34.450Z,38.15
2022-08-03T17:51:22.444Z,38.82
2022-08-03T17:54:18.569Z,40.04
2022-08-03T17:58:01.441Z,40.71
2022-08-03T18:00:42.684Z,41.65
2022-08-03T18:03:23.489Z,42.09
2022-08-03T18:06:11.910Z,42.87
2022-08-03T18:08:52.456Z,41.97
2022-08-03T18:11:37.162Z,42.43
2022-08-03T18:14:57.928Z,40.69
2022-08-03T18:17:55.696Z,41.11
2022-08-03T18:20:34.369Z,41.44
2022-08-03T18:23:10.657Z,41.75
2022-08-03T18:25:45.765Z,42.28
2022-08-03T18:28:19.434Z,42.53
2022-08-03T18:30:54.121Z,41.51
2022-08-03T18:34:16.594Z,41.52
2022-08-03T18:36:18.021Z,42.00
2022-08-03T18:38:53.929Z,42.32
2022-08-03T18:41:33.282Z,42.31
2022-08-03T18:44:07.606Z,43.08
2022-08-03T18:47:17.366Z,44.35
2022-08-03T18:50:02.413Z,43.81
2022-08-03T18:52:45.890Z,43.70
2022-08-03T18:55:33.440Z,43.92
2022-08-03T18:58:34.661Z,44.46
2022-08-03T19:02:00.593Z,44.83
2022-08-03T19:04:41.034Z,44.43
2022-08-03T19:07:11.027Z,45.44
2022-08-03T19:09:49.896Z,45.05
2022-08-03T19:12:30.833Z,45.71
2022-08-03T19:15:10.599Z,45.96
2022-08-03T19:17:53.180Z,46.13
2022-08-03T19:20:27.323Z,45.83
2022-08-03T19:22:57.892Z,46.11
2022-08-03T19:25:35.212Z,46.57
2022-08-03T19:28:06.515Z,46.32
2022-08-03T19:30:40.637Z,46.43
2022-08-03T19:33:15.274Z,46.92
2022-08-03T19:35:54.938Z,47.01
2022-08-03T19:38:28.453Z,47.27
2022-08-03T19:41:03.795Z,47.35
2022-08-03T19:43:49.520Z,47.64
2022-08-03T19:46:22.684Z,47.21
2022-08-03T19:49:10.566Z,47.33
2022-08-03T19:52:02.266Z,47.43
2022-08-03T19:54:45.810Z,48.15
2022-08-03T19:57:25.412Z,47.72
2022-08-03T19:59:56.354Z,48.38
2022-08-03T20:02:26.343Z,48.35
2022-08-03T20:05:00.034Z,48.49
2022-08-03T20:07:32.886Z,48.86
2022-08-03T20:10:05.271Z,49.49
2022-08-03T20:12:39.271Z,48.94
2022-08-03T20:15:07.544Z,49.60
2022-08-03T20:17:56.106Z,49.06
2022-08-03T20:20:31.951Z,49.17
2022-08-03T20:23:08.197Z,49.24
2022-08-03T20:25:58.651Z,49.81
2022-08-03T20:28:50.681Z,49.15
2022-08-03T20:31:23.850Z,49.70
2022-08-03T20:34:00.570Z,49.61
2022-08-03T20:36:28.105Z,49.56
2022-08-03T20:41:45.028Z,49.83
2022-08-03T20:44:12.376Z,49.97
2022-08-03T20:46:53.356Z,49.95
2022-08-03T20:49:27.707Z,50.25
2022-08-03T20:51:55.107Z,50.47
2022-08-03T20:54:29.752Z,50.63
2022-08-03T20:57:04.093Z,50.65
2022-08-03T20:59:47.090Z,50.98
2022-08-03T21:02:30.198Z,51.34
2022-08-03T21:05:08.551Z,51.36
2022-08-03T21:08:06.866Z,51.52
2022-08-03T21:10:39.038Z,51.42
2022-08-03T21:13:13.134Z,49.51
2022-08-03T21:16:12.513Z,51.63
2022-08-03T21:18:50.409Z,52.07
2022-08-03T21:21:21.001Z,52.21
2022-08-03T21:23:49.669Z,52.33
2022-08-03T21:26:20.447Z,52.33
2022-08-03T21:29:03.577Z,52.72
2022-08-03T21:31:31.235Z,52.86
2022-08-03T21:34:03.972Z,52.98
2022-08-03T21:36:35.475Z,53.06
2022-08-03T21:39:07.678Z,53.08
2022-08-03T21:41:37.854Z,53.04
2022-08-03T21:44:06.921Z,53.06
2022-08-03T21:46:38.051Z,53.49
2022-08-03T21:50:07.691Z,53.37
2022-08-03T21:52:07.037Z,53.51
2022-08-03T21:54:38.543Z,53.59
2022-08-03T21:57:19.439Z,53.43
2022-08-03T21:59:57.463Z,54.16
2022-08-03T22:02:32.157Z,54.12
2022-08-03T22:05:00.016Z,53.92
2022-08-03T22:07:29.500Z,54.51
2022-08-03T22:09:59.900Z,54.38
2022-08-03T22:12:30.925Z,54.33
2022-08-03T22:15:02.120Z,54.67
2022-08-03T22:17:54.140Z,54.54
2022-08-03T22:20:22.106Z,54.85
2022-08-03T22:22:55.763Z,54.54
2022-08-03T22:25:29.316Z,54.48
2022-08-03T22:28:00.265Z,54.41
2022-08-03T22:30:28.113Z,54.71
2022-08-03T22:32:56.707Z,55.03
2022-08-03T22:35:27.636Z,55.31
2022-08-03T22:37:58.717Z,55.30
2022-08-03T22:40:28.179Z,55.50
2022-08-03T22:42:56.822Z,55.74
2022-08-03T22:46:07.275Z,55.70
2022-08-03T22:48:11.954Z,55.68
2022-08-03T22:50:40.088Z,55.88
2022-08-03T22:53:07.668Z,55.51
2022-08-03T22:55:35.241Z,55.79
2022-08-03T22:58:02.563Z,55.82
2022-08-03T23:00:29.906Z,56.52
2022-08-03T23:03:00.926Z,56.04
2022-08-03T23:06:00.694Z,56.33
2022-08-03T23:08:25.501Z,56.29
2022-08-03T23:10:56.239Z,56.36
2022-08-03T23:13:29.468Z,56.29
2022-08-03T23:15:59.888Z,56.29
2022-08-03T23:18:37.325Z,56.49
2022-08-03T23:21:11.710Z,56.71
2022-08-03T23:23:44.016Z,56.77
2022-08-03T23:26:14.126Z,56.99
2022-08-03T23:28:46.280Z,56.57
2022-08-03T23:31:15.664Z,57.28
2022-08-03T23:33:45.786Z,57.23
2022-08-03T23:36:30.939Z,57.10
2022-08-03T23:39:02.328Z,57.29
2022-08-03T23:41:31.606Z,57.31
2022-08-03T23:44:03.753Z,57.36
2022-08-03T23:46:31.562Z,57.58
2022-08-03T23:49:00.301Z,57.65
2022-08-03T23:51:42.465Z,57.74
2022-08-03T23:54:40.433Z,58.03
2022-08-03T23:57:43.369Z,58.10
